createdAt,value
2023-01-22T00:00:15.882Z,99471.00
2023-01-22T00:02:49.069Z,99467.00
2023-01-22T00:05:21.428Z,99464.00
2023-01-22T00:07:52.273Z,99466.00
2023-01-22T00:10:23.124Z,99456.00
2023-01-22T00:12:54.006Z,99456.00
2023-01-22T00:15:24.847Z,99450.00
2023-01-22T00:17:55.791Z,99454.00
2023-01-22T00:20:26.699Z,99462.00
2023-01-22T00:22:57.552Z,99452.00
2023-01-22T00:25:28.563Z,99453.00
2023-01-22T00:27:59.455Z,99442.00
2023-01-22T00:30:33.165Z,99451.00
2023-01-22T00:33:05.111Z,99429.00
2023-01-22T00:35:36.029Z,99435.00
2023-01-22T00:38:06.937Z,99443.00
2023-01-22T00:40:37.825Z,99432.00
2023-01-22T00:43:08.662Z,99438.00
2023-01-22T00:45:40.037Z,99427.00
2023-01-22T00:48:10.880Z,99428.00
2023-01-22T00:50:41.785Z,99431.00
2023-01-22T00:53:12.620Z,99436.00
2023-01-22T00:55:53.762Z,99433.00
2023-01-22T00:58:25.751Z,99431.00
2023-01-22T01:00:56.845Z,99429.00
2023-01-22T01:03:28.315Z,99431.00
2023-01-22T01:06:20.073Z,99437.00
2023-01-22T01:08:51.011Z,99438.00
2023-01-22T01:11:23.971Z,99438.00
2023-01-22T01:13:54.864Z,99442.00
2023-01-22T01:16:31.103Z,99436.00
2023-01-22T01:19:07.607Z,99440.00
2023-01-22T01:21:38.956Z,99438.00
2023-01-22T01:24:10.985Z,99430.00
2023-01-22T01:26:42.318Z,99439.00
2023-01-22T01:29:13.152Z,99457.00
2023-01-22T01:31:44.101Z,99460.00
2023-01-22T01:34:14.957Z,99435.00
2023-01-22T01:36:49.203Z,99428.00
2023-01-22T01:39:20.453Z,99432.00
2023-01-22T01:41:51.393Z,99437.00
2023-01-22T01:44:24.077Z,99423.00
2023-01-22T01:47:01.315Z,99427.00
2023-01-22T01:50:19.553Z,99423.00
2023-01-22T01:52:50.617Z,99441.00
2023-01-22T01:55:28.747Z,99420.00
2023-01-22T01:58:06.054Z,99412.00
2023-01-22T02:00:39.952Z,99415.00
2023-01-22T02:03:11.520Z,99426.00
2023-01-22T02:08:27.694Z,99418.00
2023-01-22T02:10:58.707Z,99420.00
2023-01-22T02:13:32.811Z,99415.00
2023-01-22T02:16:05.789Z,99425.00
2023-01-22T02:18:36.821Z,99425.00
2023-01-22T02:21:39.779Z,99417.00
2023-01-22T02:24:17.083Z,99420.00
2023-01-22T02:26:47.959Z,99414.00
2023-01-22T02:29:18.842Z,99411.00
2023-01-22T02:31:49.783Z,99415.00
2023-01-22T02:34:24.516Z,99421.00
2023-01-22T02:36:55.527Z,99402.00
2023-01-22T02:39:26.464Z,99417.00
2023-01-22T02:41:58.361Z,99422.00
2023-01-22T02:44:29.184Z,99420.00
2023-01-22T02:47:00.637Z,99417.00
2023-01-22T02:49:31.899Z,99443.00
2023-01-22T02:52:02.962Z,99419.00
2023-01-22T02:54:33.801Z,99421.00
2023-01-22T02:57:04.731Z,99416.00
2023-01-22T02:59:35.622Z,99415.00
2023-01-22T03:02:06.524Z,99417.00
2023-01-22T03:04:37.387Z,99397.00
2023-01-22T03:07:08.249Z,99414.00
2023-01-22T03:09:39.091Z,99407.00
2023-01-22T03:12:10.698Z,99412.00
2023-01-22T03:14:59.942Z,99399.00
2023-01-22T03:17:49.438Z,99405.00
2023-01-22T03:20:38.975Z,99403.00
2023-01-22T03:23:09.830Z,99397.00
2023-01-22T03:25:40.698Z,99402.00
2023-01-22T03:28:18.833Z,99410.00
2023-01-22T03:30:49.718Z,99408.00
2023-01-22T03:33:20.569Z,99403.00
2023-01-22T03:35:51.696Z,99406.00
2023-01-22T03:38:22.540Z,99397.00
2023-01-22T03:40:53.422Z,99409.00
2023-01-22T03:43:24.255Z,99403.00
2023-01-22T03:46:01.152Z,99411.00
2023-01-22T03:48:32.777Z,99400.00
2023-01-22T03:51:12.556Z,99410.00
2023-01-22T03:53:45.178Z,99421.00
2023-01-22T03:56:21.206Z,99409.00
2023-01-22T03:58:52.308Z,99409.00
2023-01-22T04:01:26.381Z,99409.00
2023-01-22T04:03:57.324Z,99407.00
2023-01-22T04:06:28.828Z,99411.00
2023-01-22T04:08:59.775Z,99409.00
2023-01-22T04:11:30.622Z,99405.00
2023-01-22T04:14:01.472Z,99408.00
2023-01-22T04:16:32.393Z,99409.00
2023-01-22T04:19:03.333Z,99405.00
2023-01-22T04:21:34.199Z,99409.00
2023-01-22T04:24:05.443Z,99414.00
2023-01-22T04:26:36.289Z,99414.00
2023-01-22T04:29:07.176Z,99413.00
2023-01-22T04:31:38.106Z,99408.00
2023-01-22T04:34:09.106Z,99406.00
2023-01-22T04:36:40.018Z,99400.00
2023-01-22T04:39:10.850Z,99413.00
2023-01-22T04:41:41.834Z,99414.00
2023-01-22T04:44:12.717Z,99419.00
2023-01-22T04:46:43.556Z,99413.00
2023-01-22T04:49:14.399Z,99413.00
2023-01-22T04:51:45.329Z,99417.00
2023-01-22T04:54:16.229Z,99415.00
2023-01-22T04:56:47.097Z,99421.00
2023-01-22T04:59:17.931Z,99424.00
2023-01-22T05:01:51.007Z,99428.00
2023-01-22T05:04:21.938Z,99433.00
2023-01-22T05:06:52.919Z,99427.00
2023-01-22T05:09:24.710Z,99429.00
2023-01-22T05:11:55.620Z,99441.00
2023-01-22T05:14:26.534Z,99445.00
2023-01-22T05:16:57.401Z,99448.00
2023-01-22T05:19:28.252Z,99449.00
2023-01-22T05:21:59.130Z,99443.00
2023-01-22T05:24:29.986Z,99452.00
2023-01-22T05:27:00.996Z,99455.00
2023-01-22T05:29:32.121Z,99455.00
2023-01-22T05:32:03.292Z,99456.00
2023-01-22T05:34:34.127Z,99459.00
2023-01-22T05:37:05.066Z,99449.00
2023-01-22T05:39:35.978Z,99455.00
2023-01-22T05:42:06.937Z,99459.00
2023-01-22T05:44:37.744Z,99459.00
2023-01-22T05:47:10.119Z,99450.00
2023-01-22T05:49:41.295Z,99457.00
2023-01-22T05:52:12.172Z,99459.00
2023-01-22T05:54:43.029Z,99461.00
2023-01-22T05:57:13.910Z,99465.00
2023-01-22T05:59:45.050Z,99468.00
2023-01-22T06:02:15.964Z,99469.00
2023-01-22T06:04:46.836Z,99468.00
2023-01-22T06:07:17.689Z,99476.00
2023-01-22T06:09:48.545Z,99468.00
2023-01-22T06:12:19.473Z,99468.00
2023-01-22T06:14:50.966Z,99468.00
2023-01-22T06:17:23.016Z,99488.00
2023-01-22T06:19:53.845Z,99482.00
2023-01-22T06:22:24.777Z,99487.00
2023-01-22T06:24:55.679Z,99487.00
2023-01-22T06:27:26.587Z,99488.00
2023-01-22T06:29:57.434Z,99495.00
2023-01-22T06:32:28.325Z,99485.00
2023-01-22T06:34:59.155Z,99490.00
2023-01-22T06:37:30.037Z,99480.00
2023-01-22T06:40:00.890Z,99493.00
2023-01-22T06:42:31.798Z,99496.00
2023-01-22T06:45:02.625Z,99504.00
2023-01-22T06:47:33.612Z,99500.00
2023-01-22T06:50:05.294Z,99499.00
2023-01-22T06:52:36.186Z,99501.00
2023-01-22T06:55:07.441Z,99496.00
2023-01-22T06:57:38.516Z,99501.00
2023-01-22T07:00:11.116Z,99511.00
2023-01-22T07:02:41.957Z,99510.00
2023-01-22T07:05:12.816Z,99515.00
2023-01-22T07:07:43.728Z,99511.00
2023-01-22T07:10:15.393Z,99512.00
2023-01-22T07:12:46.311Z,99509.00
2023-01-22T07:15:17.391Z,99517.00
2023-01-22T07:17:53.454Z,99520.00
2023-01-22T07:20:24.777Z,99521.00
2023-01-22T07:22:59.983Z,99527.00
2023-01-22T07:25:30.967Z,99530.00
2023-01-22T07:28:03.464Z,99529.00
2023-01-22T07:30:34.593Z,99530.00
2023-01-22T07:33:11.305Z,99536.00
2023-01-22T07:35:42.950Z,99529.00
2023-01-22T07:38:13.829Z,99533.00
2023-01-22T07:40:44.668Z,99538.00
2023-01-22T07:43:16.286Z,99535.00
2023-01-22T07:45:47.134Z,99539.00
2023-01-22T07:48:18.035Z,99532.00
2023-01-22T07:50:48.915Z,99532.00
2023-01-22T07:53:19.765Z,99528.00
2023-01-22T07:55:50.693Z,99538.00
2023-01-22T07:58:22.074Z,99540.00
2023-01-22T08:00:53.035Z,99537.00
2023-01-22T08:03:24.005Z,99541.00
2023-01-22T08:05:56.499Z,99542.00
2023-01-22T08:08:27.640Z,99546.00
2023-01-22T08:11:00.041Z,99549.00
2023-01-22T08:13:31.395Z,99549.00
2023-01-22T08:16:02.339Z,99560.00
2023-01-22T08:18:33.198Z,99551.00
2023-01-22T08:21:04.688Z,99561.00
2023-01-22T08:23:38.879Z,99556.00
2023-01-22T08:26:09.867Z,99576.00
2023-01-22T08:28:40.716Z,99573.00
2023-01-22T08:31:26.415Z,99579.00
2023-01-22T08:33:59.660Z,99586.00
2023-01-22T08:36:30.690Z,99584.00
2023-01-22T08:39:10.724Z,99587.00
2023-01-22T08:41:41.878Z,99591.00
2023-01-22T08:44:14.919Z,99587.00
2023-01-22T08:46:45.863Z,99581.00
2023-01-22T08:49:18.194Z,99611.00
2023-01-22T08:51:50.479Z,99593.00
2023-01-22T08:54:21.351Z,99592.00
2023-01-22T08:56:52.594Z,99588.00
2023-01-22T08:59:23.521Z,99581.00
2023-01-22T09:01:54.495Z,99583.00
2023-01-22T09:04:25.970Z,99586.00
2023-01-22T09:06:56.902Z,99590.00
2023-01-22T09:09:27.753Z,99577.00
2023-01-22T09:11:58.642Z,99582.00
2023-01-22T09:14:29.595Z,99584.00
2023-01-22T09:17:00.465Z,99587.00
2023-01-22T09:19:31.312Z,99589.00
2023-01-22T09:22:06.517Z,99593.00
2023-01-22T09:24:37.367Z,99590.00
2023-01-22T09:27:09.229Z,99598.00
2023-01-22T09:29:45.004Z,99600.00
2023-01-22T09:32:15.944Z,99604.00
2023-01-22T09:34:46.760Z,99600.00
2023-01-22T09:37:17.727Z,99598.00
2023-01-22T09:39:51.712Z,99602.00
2023-01-22T09:42:40.550Z,99613.00
2023-01-22T09:45:14.166Z,99598.00
2023-01-22T09:47:49.679Z,99602.00
2023-01-22T09:50:27.476Z,99613.00
2023-01-22T09:53:04.165Z,99618.00
2023-01-22T09:55:44.875Z,99616.00
2023-01-22T09:58:23.004Z,99616.00
2023-01-22T10:01:00.832Z,99619.00
2023-01-22T10:03:54.023Z,99614.00
2023-01-22T10:06:25.368Z,99616.00
2023-01-22T10:09:08.241Z,99625.00
2023-01-22T10:11:39.598Z,99621.00
2023-01-22T10:14:16.976Z,99621.00
2023-01-22T10:16:49.142Z,99622.00
2023-01-22T10:19:53.640Z,99623.00
2023-01-22T10:22:26.766Z,99627.00
2023-01-22T10:24:58.482Z,99624.00
2023-01-22T10:27:39.505Z,99623.00
2023-01-22T10:30:25.947Z,99650.00
2023-01-22T10:33:06.458Z,99631.00
2023-01-22T10:35:50.639Z,99637.00
2023-01-22T10:38:30.013Z,99630.00
2023-01-22T10:41:04.112Z,99637.00
2023-01-22T10:43:38.111Z,99634.00
2023-01-22T10:46:23.195Z,99637.00
2023-01-22T10:49:02.463Z,99643.00
2023-01-22T10:51:39.443Z,99637.00
2023-01-22T10:54:34.094Z,99636.00
2023-01-22T10:57:18.872Z,99635.00
2023-01-22T11:00:21.325Z,99634.00
2023-01-22T11:02:52.733Z,99630.00
2023-01-22T11:05:31.991Z,99636.00
2023-01-22T11:08:12.667Z,99633.00
2023-01-22T11:10:56.834Z,99630.00
2023-01-22T11:13:53.777Z,99625.00
2023-01-22T11:16:25.609Z,99634.00
2023-01-22T11:19:07.046Z,99631.00
2023-01-22T11:21:51.672Z,99637.00
2023-01-22T11:24:26.268Z,99642.00
2023-01-22T11:27:41.638Z,99621.00
2023-01-22T11:30:41.902Z,99639.00
2023-01-22T11:33:27.843Z,99633.00
2023-01-22T11:36:22.691Z,99637.00
2023-01-22T11:39:20.063Z,99636.00
2023-01-22T11:42:17.874Z,99642.00
2023-01-22T11:45:16.145Z,99627.00
2023-01-22T11:48:05.681Z,99621.00
2023-01-22T11:50:48.603Z,99620.00
2023-01-22T11:53:44.063Z,99624.00
2023-01-22T11:56:44.374Z,99617.00
2023-01-22T11:59:51.224Z,99605.00
2023-01-22T12:03:15.919Z,99606.00
2023-01-22T12:06:13.102Z,99603.00
2023-01-22T12:09:04.644Z,99614.00
2023-01-22T12:11:49.837Z,99611.00
2023-01-22T12:14:55.118Z,99613.00
2023-01-22T12:17:36.154Z,99612.00
2023-01-22T12:20:26.641Z,99608.00
2023-01-22T12:23:16.185Z,99613.00
2023-01-22T12:26:05.710Z,99609.00
2023-01-22T12:29:13.079Z,99613.00
2023-01-22T12:31:59.900Z,99619.00
2023-01-22T12:34:48.120Z,99607.00
2023-01-22T12:37:24.044Z,99615.00
2023-01-22T12:40:28.869Z,99611.00
2023-01-22T12:43:02.895Z,99615.00
2023-01-22T12:46:02.776Z,99616.00
2023-01-22T12:48:48.232Z,99615.00
2023-01-22T12:51:27.129Z,99618.00
2023-01-22T12:54:25.894Z,99629.00
2023-01-22T12:57:25.255Z,99627.00
2023-01-22T12:59:57.881Z,99632.00
2023-01-22T13:02:35.599Z,99626.00
2023-01-22T13:05:31.730Z,99630.00
2023-01-22T13:08:17.817Z,99621.00
2023-01-22T13:11:05.483Z,99623.00
2023-01-22T13:14:06.223Z,99627.00
2023-01-22T13:17:03.611Z,99626.00
2023-01-22T13:19:42.059Z,99627.00
2023-01-22T13:22:25.229Z,99619.00
2023-01-22T13:24:58.733Z,99631.00
2023-01-22T13:27:36.427Z,99635.00
2023-01-22T13:30:18.471Z,99631.00
2023-01-22T13:32:49.650Z,99631.00
2023-01-22T13:35:20.501Z,99630.00
2023-01-22T13:37:51.780Z,99627.00
2023-01-22T13:40:31.472Z,99631.00
2023-01-22T13:43:06.542Z,99637.00
2023-01-22T13:45:40.223Z,99645.00
2023-01-22T13:48:17.637Z,99636.00
2023-01-22T13:51:03.091Z,99647.00
2023-01-22T13:53:47.655Z,99643.00
2023-01-22T13:56:22.718Z,99641.00
2023-01-22T13:59:17.396Z,99637.00
2023-01-22T14:01:49.058Z,99629.00
2023-01-22T14:04:37.007Z,99639.00
2023-01-22T14:07:07.970Z,99635.00
2023-01-22T14:09:40.562Z,99634.00
2023-01-22T14:12:21.984Z,99640.00
2023-01-22T14:14:55.905Z,99640.00
2023-01-22T14:17:34.335Z,99677.00
2023-01-22T14:20:06.304Z,99638.00
2023-01-22T14:22:37.183Z,99641.00
2023-01-22T14:25:08.983Z,99645.00
2023-01-22T14:27:50.357Z,99645.00
2023-01-22T14:30:22.670Z,99646.00
2023-01-22T14:32:56.878Z,99649.00
2023-01-22T14:35:28.645Z,99647.00
2023-01-22T14:37:59.709Z,99661.00
2023-01-22T14:40:31.003Z,99655.00
2023-01-22T14:43:02.900Z,99650.00
2023-01-22T14:45:34.180Z,99658.00
2023-01-22T14:48:05.377Z,99650.00
2023-01-22T14:50:39.124Z,99656.00
2023-01-22T14:53:11.638Z,99654.00
2023-01-22T14:55:43.300Z,99659.00
2023-01-22T14:58:16.232Z,99658.00
2023-01-22T15:00:47.153Z,99664.00
2023-01-22T15:03:18.145Z,99671.00
2023-01-22T15:05:52.939Z,99674.00
2023-01-22T15:08:23.933Z,99668.00
2023-01-22T15:10:57.117Z,99683.00
2023-01-22T15:13:27.954Z,99685.00
2023-01-22T15:16:10.839Z,99683.00
2023-01-22T15:18:41.783Z,99688.00
2023-01-22T15:21:12.681Z,99686.00
2023-01-22T15:23:43.593Z,99683.00
2023-01-22T15:26:32.693Z,99695.00
2023-01-22T15:29:11.293Z,99688.00
2023-01-22T15:31:42.387Z,99696.00
2023-01-22T15:34:13.287Z,99704.00
2023-01-22T15:36:44.863Z,99724.00
2023-01-22T15:39:16.341Z,99705.00
2023-01-22T15:41:47.369Z,99695.00
2023-01-22T15:44:18.229Z,99703.00
2023-01-22T15:46:49.229Z,99700.00
2023-01-22T15:49:20.361Z,99710.00
2023-01-22T15:51:51.285Z,99697.00
2023-01-22T15:54:23.767Z,99698.00
2023-01-22T15:56:56.074Z,99694.00
2023-01-22T15:59:27.069Z,99706.00
2023-01-22T16:01:57.982Z,99710.00
2023-01-22T16:04:28.835Z,99709.00
2023-01-22T16:06:59.723Z,99711.00
2023-01-22T16:09:31.481Z,99714.00
2023-01-22T16:12:02.639Z,99705.00
2023-01-22T16:14:33.653Z,99714.00
2023-01-22T16:17:04.597Z,99717.00
2023-01-22T16:19:35.495Z,99707.00
2023-01-22T16:22:06.977Z,99717.00
2023-01-22T16:24:38.399Z,99711.00
2023-01-22T16:27:09.356Z,99716.00
2023-01-22T16:29:40.240Z,99715.00
2023-01-22T16:32:11.221Z,99713.00
2023-01-22T16:34:42.125Z,99720.00
2023-01-22T16:37:12.977Z,99717.00
2023-01-22T16:39:43.836Z,99714.00
2023-01-22T16:42:14.692Z,99720.00
2023-01-22T16:44:45.559Z,99722.00
2023-01-22T16:47:16.414Z,99732.00
2023-01-22T16:49:47.389Z,99729.00
2023-01-22T16:52:22.943Z,99736.00
2023-01-22T16:54:54.092Z,99738.00
2023-01-22T16:57:24.991Z,99744.00
2023-01-22T16:59:55.819Z,99746.00
2023-01-22T17:02:27.155Z,99747.00
2023-01-22T17:04:58.104Z,99744.00
2023-01-22T17:07:34.101Z,99755.00
2023-01-22T17:10:05.836Z,99758.00
2023-01-22T17:12:36.796Z,99757.00
2023-01-22T17:15:08.623Z,99756.00
2023-01-22T17:17:39.982Z,99756.00
2023-01-22T17:20:11.846Z,99761.00
2023-01-22T17:22:42.697Z,99759.00
2023-01-22T17:25:13.556Z,99757.00
2023-01-22T17:27:44.404Z,99761.00
2023-01-22T17:30:16.401Z,99761.00
2023-01-22T17:32:48.553Z,99768.00
2023-01-22T17:35:19.631Z,99762.00
2023-01-22T17:37:50.740Z,99769.00
2023-01-22T17:40:21.601Z,99772.00
2023-01-22T17:42:52.501Z,99781.00
2023-01-22T17:45:23.349Z,99783.00
2023-01-22T17:47:54.310Z,99771.00
2023-01-22T17:50:25.157Z,99773.00
2023-01-22T17:52:56.022Z,99783.00
2023-01-22T17:55:29.553Z,99788.00
2023-01-22T17:58:00.439Z,99771.00
2023-01-22T18:00:31.915Z,99783.00
2023-01-22T18:03:04.186Z,99784.00
2023-01-22T18:05:35.479Z,99791.00
2023-01-22T18:08:06.516Z,99792.00
2023-01-22T18:10:38.305Z,99794.00
2023-01-22T18:13:09.441Z,99801.00
2023-01-22T18:15:46.778Z,99804.00
2023-01-22T18:18:18.243Z,99808.00
2023-01-22T18:20:49.265Z,99810.00
2023-01-22T18:23:20.391Z,99803.00
2023-01-22T18:25:56.414Z,99807.00
2023-01-22T18:28:27.420Z,99813.00
2023-01-22T18:31:08.654Z,99817.00
2023-01-22T18:33:40.915Z,99826.00
2023-01-22T18:36:18.464Z,99824.00
2023-01-22T18:38:50.106Z,99813.00
2023-01-22T18:41:24.075Z,99822.00
2023-01-22T18:43:58.398Z,99823.00
2023-01-22T18:46:37.010Z,99826.00
2023-01-22T18:49:12.767Z,99832.00
2023-01-22T18:51:45.011Z,99835.00
2023-01-22T18:54:16.818Z,99836.00
2023-01-22T18:56:47.745Z,99852.00
2023-01-22T18:59:18.714Z,99832.00
2023-01-22T19:01:52.640Z,99828.00
2023-01-22T19:04:23.646Z,99832.00
2023-01-22T19:06:55.137Z,99837.00
2023-01-22T19:09:27.074Z,99844.00
2023-01-22T19:11:58.435Z,99848.00
2023-01-22T19:14:29.448Z,99876.00
2023-01-22T19:17:00.468Z,99853.00
2023-01-22T19:19:32.962Z,99856.00
2023-01-22T19:22:04.377Z,99856.00
2023-01-22T19:24:35.681Z,99856.00
2023-01-22T19:27:08.927Z,99859.00
2023-01-22T19:29:39.795Z,99844.00
2023-01-22T19:32:12.227Z,99852.00
2023-01-22T19:34:43.596Z,99849.00
2023-01-22T19:37:14.474Z,99861.00
2023-01-22T19:39:45.384Z,99859.00
2023-01-22T19:42:16.599Z,99857.00
2023-01-22T19:44:47.489Z,99864.00
2023-01-22T19:47:21.895Z,99868.00
2023-01-22T19:49:52.873Z,99860.00
2023-01-22T19:52:23.729Z,99858.00
2023-01-22T19:54:55.886Z,99867.00
2023-01-22T19:57:30.129Z,99858.00
2023-01-22T20:00:01.132Z,99854.00
2023-01-22T20:02:32.017Z,99872.00
2023-01-22T20:05:05.595Z,99868.00
2023-01-22T20:07:36.517Z,99876.00
2023-01-22T20:10:07.892Z,99871.00
2023-01-22T20:12:38.800Z,99866.00
2023-01-22T20:15:15.461Z,99876.00
2023-01-22T20:17:47.213Z,99886.00
2023-01-22T20:20:18.931Z,99871.00
2023-01-22T20:22:52.745Z,99869.00
2023-01-22T20:25:23.901Z,99869.00
2023-01-22T20:27:54.931Z,99866.00
2023-01-22T20:30:26.827Z,99874.00
2023-01-22T20:32:57.766Z,99872.00
2023-01-22T20:35:28.962Z,99892.00
2023-01-22T20:37:59.873Z,99885.00
2023-01-22T20:40:30.796Z,99876.00
2023-01-22T20:43:02.698Z,99875.00
2023-01-22T20:45:33.640Z,99874.00
2023-01-22T20:48:04.765Z,99870.00
2023-01-22T20:50:35.645Z,99873.00
2023-01-22T20:53:06.563Z,99883.00
2023-01-22T20:55:37.968Z,99874.00
2023-01-22T20:58:08.839Z,99886.00
2023-01-22T21:00:39.877Z,99885.00
2023-01-22T21:03:10.783Z,99890.00
2023-01-22T21:05:42.588Z,99885.00
2023-01-22T21:08:16.441Z,99897.00
2023-01-22T21:10:59.549Z,99896.00
2023-01-22T21:13:32.047Z,99906.00
2023-01-22T21:16:16.795Z,99897.00
2023-01-22T21:18:47.761Z,99896.00
2023-01-22T21:21:19.573Z,99901.00
2023-01-22T21:23:53.558Z,99891.00
2023-01-22T21:26:29.293Z,99898.00
2023-01-22T21:29:06.200Z,99892.00
2023-01-22T21:31:38.023Z,99895.00
2023-01-22T21:34:10.568Z,99903.00
2023-01-22T21:36:45.607Z,99901.00
2023-01-22T21:39:22.714Z,99907.00
2023-01-22T21:42:14.155Z,99902.00
2023-01-22T21:45:04.032Z,99900.00
2023-01-22T21:47:34.981Z,99906.00
2023-01-22T21:50:06.463Z,99908.00
2023-01-22T21:52:37.359Z,99915.00
2023-01-22T21:55:08.723Z,99901.00
2023-01-22T21:57:39.875Z,99906.00
2023-01-22T22:00:11.639Z,99913.00
2023-01-22T22:02:42.712Z,99912.00
2023-01-22T22:05:16.440Z,99912.00
2023-01-22T22:07:47.475Z,99909.00
2023-01-22T22:10:20.307Z,99922.00
2023-01-22T22:12:53.705Z,99920.00
2023-01-22T22:15:24.641Z,99921.00
2023-01-22T22:17:55.518Z,99927.00
2023-01-22T22:20:26.495Z,99922.00
2023-01-22T22:22:57.497Z,99919.00
2023-01-22T22:25:28.436Z,99929.00
2023-01-22T22:28:01.014Z,99922.00
2023-01-22T22:30:31.958Z,99931.00
2023-01-22T22:33:02.857Z,99927.00
2023-01-22T22:35:33.713Z,99934.00
2023-01-22T22:38:04.707Z,99933.00
2023-01-22T22:40:35.587Z,99933.00
2023-01-22T22:43:06.541Z,99935.00
2023-01-22T22:45:38.546Z,99949.00
2023-01-22T22:48:09.503Z,99936.00
2023-01-22T22:50:43.391Z,99941.00
2023-01-22T22:53:14.436Z,99943.00
2023-01-22T22:55:45.284Z,99941.00
2023-01-22T22:58:16.812Z,99950.00
2023-01-22T23:00:47.752Z,99939.00
2023-01-22T23:03:18.630Z,99941.00
2023-01-22T23:05:49.474Z,99953.00
2023-01-22T23:08:20.417Z,99941.00
2023-01-22T23:10:51.309Z,99946.00
2023-01-22T23:13:22.169Z,99940.00
2023-01-22T23:15:52.994Z,99953.00
2023-01-22T23:18:26.021Z,99945.00
2023-01-22T23:20:56.974Z,99946.00
2023-01-22T23:23:27.852Z,99930.00
2023-01-22T23:25:58.703Z,99939.00
2023-01-22T23:28:29.582Z,99941.00
2023-01-22T23:31:15.437Z,99934.00
2023-01-22T23:33:46.691Z,99927.00
2023-01-22T23:36:18.216Z,99926.00
2023-01-22T23:38:49.369Z,99934.00
2023-01-22T23:41:21.286Z,99934.00
2023-01-22T23:43:52.276Z,99933.00
2023-01-22T23:46:28.201Z,99936.00
2023-01-22T23:48:59.964Z,99932.00
2023-01-22T23:51:31.092Z,99926.00
2023-01-22T23:54:02.038Z,99918.00
2023-01-22T23:56:33.153Z,99918.00
2023-01-22T23:59:04.586Z,99931.00
